createdAt,value
2023-05-06T00:00:26.814Z,72.78
2023-05-06T00:02:54.361Z,72.65
2023-05-06T00:05:21.830Z,72.67
2023-05-06T00:07:49.300Z,72.73
2023-05-06T00:10:18.068Z,72.82
2023-05-06T00:12:45.519Z,72.64
2023-05-06T00:15:13.055Z,72.71
2023-05-06T00:17:40.568Z,72.82
2023-05-06T00:20:09.521Z,72.88
2023-05-06T00:22:37.049Z,72.66
2023-05-06T00:25:04.609Z,72.62
2023-05-06T00:27:33.410Z,72.87
2023-05-06T00:30:00.853Z,72.67
2023-05-06T00:32:28.364Z,72.80
2023-05-06T00:34:55.838Z,72.72
2023-05-06T00:37:23.412Z,72.80
2023-05-06T00:39:50.869Z,72.79
2023-05-06T00:42:18.358Z,72.81
2023-05-06T00:44:47.156Z,72.82
2023-05-06T00:47:14.788Z,72.63
2023-05-06T00:49:42.495Z,72.78
2023-05-06T00:52:10.413Z,72.78
2023-05-06T00:54:37.874Z,72.80
2023-05-06T00:57:05.708Z,72.75
2023-05-06T00:59:33.310Z,72.80
2023-05-06T01:02:02.326Z,72.80
2023-05-06T01:04:30.659Z,72.78
2023-05-06T01:07:03.420Z,72.70
2023-05-06T01:09:37.063Z,72.66
2023-05-06T01:12:08.038Z,72.59
2023-05-06T01:14:37.786Z,72.68
2023-05-06T01:17:08.151Z,72.88
2023-05-06T01:19:41.889Z,72.86
2023-05-06T01:22:10.836Z,72.79
2023-05-06T01:24:40.491Z,72.82
2023-05-06T01:27:08.227Z,72.67
2023-05-06T01:29:37.473Z,72.74
2023-05-06T01:32:11.268Z,72.88
2023-05-06T01:34:43.201Z,72.74
2023-05-06T01:37:15.156Z,72.90
2023-05-06T01:39:45.362Z,72.78
2023-05-06T01:42:14.778Z,72.80
2023-05-06T01:44:44.472Z,72.88
2023-05-06T01:47:12.984Z,72.67
2023-05-06T01:49:40.702Z,72.82
2023-05-06T01:52:08.149Z,72.93
2023-05-06T01:54:35.613Z,72.95
2023-05-06T01:57:04.455Z,72.74
2023-05-06T01:59:31.853Z,72.73
2023-05-06T02:01:59.489Z,72.85
2023-05-06T02:04:27.101Z,72.82
2023-05-06T02:06:54.517Z,72.68
2023-05-06T02:09:21.976Z,72.77
2023-05-06T02:11:49.432Z,72.66
2023-05-06T02:14:18.222Z,72.77
2023-05-06T02:16:45.642Z,72.69
2023-05-06T02:19:13.320Z,72.81
2023-05-06T02:21:40.744Z,72.68
2023-05-06T02:24:08.266Z,72.68
2023-05-06T02:26:35.708Z,72.83
2023-05-06T02:29:03.155Z,72.82
2023-05-06T02:31:32.072Z,72.79
2023-05-06T02:33:59.554Z,72.65
2023-05-06T02:36:27.596Z,72.83
2023-05-06T02:38:55.082Z,72.82
2023-05-06T02:41:22.518Z,72.63
2023-05-06T02:43:49.977Z,72.63
2023-05-06T02:46:17.441Z,72.60
2023-05-06T02:48:46.371Z,72.67
2023-05-06T02:51:13.914Z,72.79
2023-05-06T02:53:41.376Z,72.58
2023-05-06T02:56:08.890Z,72.74
2023-05-06T02:58:36.326Z,72.68
2023-05-06T03:01:03.781Z,72.67
2023-05-06T03:03:31.257Z,72.70
2023-05-06T03:06:00.038Z,72.70
2023-05-06T03:08:27.516Z,72.66
2023-05-06T03:10:54.986Z,72.63
2023-05-06T03:13:22.665Z,72.77
2023-05-06T03:15:52.161Z,72.79
2023-05-06T03:18:19.591Z,72.75
2023-05-06T03:20:48.974Z,72.81
2023-05-06T03:23:17.788Z,72.68
2023-05-06T03:25:45.213Z,72.62
2023-05-06T03:28:12.808Z,72.79
2023-05-06T03:30:40.607Z,72.77
2023-05-06T03:33:08.097Z,72.87
2023-05-06T03:35:35.598Z,73.01
2023-05-06T03:38:03.003Z,72.52
2023-05-06T03:40:31.878Z,72.76
2023-05-06T03:42:59.342Z,72.74
2023-05-06T03:45:26.734Z,72.82
2023-05-06T03:47:54.219Z,72.82
2023-05-06T03:50:21.741Z,72.81
2023-05-06T03:52:49.258Z,72.79
2023-05-06T03:55:16.799Z,72.60
2023-05-06T03:57:45.680Z,72.61
2023-05-06T04:00:13.642Z,72.71
2023-05-06T04:02:42.705Z,72.68
2023-05-06T04:05:10.783Z,72.71
2023-05-06T04:07:38.378Z,72.70
2023-05-06T04:10:06.490Z,72.77
2023-05-06T04:12:34.889Z,72.83
2023-05-06T04:15:03.660Z,72.70
2023-05-06T04:17:31.310Z,72.67
2023-05-06T04:19:58.770Z,72.79
2023-05-06T04:22:26.228Z,72.68
2023-05-06T04:24:53.663Z,72.70
2023-05-06T04:27:21.067Z,72.68
2023-05-06T04:29:48.524Z,72.70
2023-05-06T04:32:18.024Z,72.79
2023-05-06T04:34:47.227Z,72.57
2023-05-06T04:37:15.336Z,72.63
2023-05-06T04:39:46.605Z,72.63
2023-05-06T04:42:14.213Z,72.69
2023-05-06T04:44:42.236Z,72.69
2023-05-06T04:47:09.717Z,72.68
2023-05-06T04:49:38.661Z,72.65
2023-05-06T04:52:06.187Z,72.64
2023-05-06T04:54:33.648Z,72.67
2023-05-06T04:57:01.063Z,72.77
2023-05-06T04:59:28.560Z,72.73
2023-05-06T05:01:56.006Z,72.77
2023-05-06T05:04:23.467Z,72.71
2023-05-06T05:06:52.685Z,72.72
2023-05-06T05:09:20.178Z,72.71
2023-05-06T05:11:47.616Z,72.69
2023-05-06T05:14:15.066Z,72.88
2023-05-06T05:16:42.684Z,72.61
2023-05-06T05:19:10.150Z,72.73
2023-05-06T05:21:37.580Z,72.73
2023-05-06T05:24:06.759Z,72.75
2023-05-06T05:26:34.290Z,72.85
2023-05-06T05:29:01.777Z,73.01
2023-05-06T05:31:31.085Z,72.81
2023-05-06T05:33:58.628Z,73.01
2023-05-06T05:36:26.236Z,72.80
2023-05-06T05:38:53.691Z,72.79
2023-05-06T05:41:22.476Z,72.73
2023-05-06T05:43:49.883Z,72.92
2023-05-06T05:46:17.682Z,72.65
2023-05-06T05:48:45.157Z,72.93
2023-05-06T05:51:12.607Z,72.89
2023-05-06T05:53:40.063Z,72.76
2023-05-06T05:56:07.695Z,72.74
2023-05-06T05:58:36.505Z,72.80
2023-05-06T06:01:04.155Z,72.88
2023-05-06T06:03:31.770Z,72.74
2023-05-06T06:05:59.316Z,72.92
2023-05-06T06:08:27.547Z,72.78
2023-05-06T06:10:54.980Z,72.81
2023-05-06T06:13:22.608Z,72.92
2023-05-06T06:15:52.179Z,72.89
2023-05-06T06:18:20.027Z,72.80
2023-05-06T06:20:47.423Z,72.91
2023-05-06T06:23:15.358Z,72.87
2023-05-06T06:25:42.917Z,72.95
2023-05-06T06:28:10.351Z,72.94
2023-05-06T06:30:37.803Z,72.85
2023-05-06T06:33:06.794Z,73.01
2023-05-06T06:35:34.861Z,72.85
2023-05-06T06:38:02.909Z,72.94
2023-05-06T06:40:30.432Z,72.82
2023-05-06T06:42:57.838Z,72.85
2023-05-06T06:45:25.307Z,73.04
2023-05-06T06:47:52.772Z,73.05
2023-05-06T06:50:21.785Z,72.90
2023-05-06T06:52:49.248Z,73.01
2023-05-06T06:55:19.894Z,72.88
2023-05-06T06:58:05.107Z,72.89
2023-05-06T07:00:35.667Z,73.09
2023-05-06T07:03:19.796Z,73.02
2023-05-06T07:05:50.124Z,73.05
2023-05-06T07:08:21.810Z,73.12
2023-05-06T07:10:50.636Z,72.87
2023-05-06T07:13:20.954Z,73.07
2023-05-06T07:15:49.865Z,73.12
2023-05-06T07:18:18.642Z,73.05
2023-05-06T07:20:47.345Z,73.06
2023-05-06T07:23:24.260Z,72.93
2023-05-06T07:32:39.195Z,72.98
2023-05-06T07:45:55.702Z,73.09
2023-05-06T07:58:21.741Z,74.05
2023-05-06T08:01:26.418Z,73.55
2023-05-06T08:08:02.257Z,73.90
2023-05-06T09:17:24.426Z,73.28
2023-05-06T09:19:53.047Z,73.33
2023-05-06T09:22:22.212Z,73.26
2023-05-06T09:24:56.620Z,73.38
2023-05-06T09:27:24.626Z,73.26
2023-05-06T09:30:02.760Z,73.12
2023-05-06T09:32:30.299Z,73.15
2023-05-06T09:34:57.931Z,73.35
2023-05-06T09:37:26.311Z,73.21
2023-05-06T09:39:56.571Z,73.27
2023-05-06T09:42:25.253Z,73.08
2023-05-06T09:44:54.093Z,73.09
2023-05-06T09:47:22.282Z,73.18
2023-05-06T09:49:49.722Z,73.33
2023-05-06T09:52:17.190Z,73.43
2023-05-06T09:54:46.704Z,73.27
2023-05-06T09:57:17.219Z,73.27
2023-05-06T09:59:45.101Z,73.31
2023-05-06T10:02:13.152Z,73.28
2023-05-06T10:04:42.454Z,73.33
2023-05-06T10:07:11.580Z,73.19
2023-05-06T10:09:39.869Z,73.26
2023-05-06T10:12:08.446Z,73.20
2023-05-06T10:14:37.694Z,73.52
2023-05-06T10:17:07.690Z,73.20
2023-05-06T10:19:35.221Z,73.16
2023-05-06T10:22:05.762Z,73.29
2023-05-06T10:24:37.855Z,73.20
2023-05-06T10:27:06.659Z,73.20
2023-05-06T10:29:36.675Z,73.16
2023-05-06T10:32:06.297Z,73.20
2023-05-06T10:34:37.848Z,73.10
2023-05-06T10:37:05.703Z,73.15
2023-05-06T10:39:33.549Z,73.11
2023-05-06T10:42:01.864Z,73.01
2023-05-06T10:44:45.673Z,72.93
2023-05-06T10:47:14.960Z,73.05
2023-05-06T10:49:42.421Z,72.94
2023-05-06T10:52:14.109Z,73.09
2023-05-06T10:54:51.563Z,72.91
2023-05-06T10:57:20.745Z,72.85
2023-05-06T10:59:49.342Z,72.73
2023-05-06T11:02:20.810Z,72.91
2023-05-06T11:04:52.852Z,72.82
2023-05-06T11:07:23.821Z,72.75
2023-05-06T11:09:54.907Z,72.69
2023-05-06T11:12:22.877Z,72.72
2023-05-06T11:14:50.420Z,72.73
2023-05-06T11:17:32.263Z,72.69
2023-05-06T11:20:19.212Z,72.75
2023-05-06T11:22:46.761Z,72.81
2023-05-06T11:25:14.349Z,72.62
2023-05-06T11:27:42.071Z,72.78
2023-05-06T11:30:14.508Z,72.79
2023-05-06T11:32:43.847Z,72.84
2023-05-06T11:35:12.541Z,72.68
2023-05-06T11:37:39.966Z,72.87
2023-05-06T11:40:14.600Z,72.87
2023-05-06T11:42:42.114Z,72.75
2023-05-06T11:45:10.243Z,72.69
2023-05-06T11:47:43.993Z,72.93
2023-05-06T11:50:13.196Z,72.86
2023-05-06T11:52:41.106Z,72.85
2023-05-06T11:55:09.878Z,72.88
2023-05-06T11:57:37.335Z,72.87
2023-05-06T12:00:05.320Z,72.97
2023-05-06T12:02:32.902Z,72.88
2023-05-06T12:05:03.454Z,72.90
2023-05-06T12:07:32.316Z,72.98
2023-05-06T12:10:03.981Z,72.85
2023-05-06T12:12:32.302Z,73.08
2023-05-06T12:14:59.940Z,72.98
2023-05-06T12:17:27.512Z,73.01
2023-05-06T12:19:54.960Z,72.94
2023-05-06T12:22:24.478Z,72.88
2023-05-06T12:24:53.344Z,73.02
2023-05-06T12:27:39.498Z,73.06
2023-05-06T12:30:09.478Z,73.05
2023-05-06T12:32:56.897Z,72.87
2023-05-06T12:35:27.713Z,73.03
2023-05-06T12:37:55.157Z,72.97
2023-05-06T12:40:23.924Z,72.94
2023-05-06T12:42:54.751Z,73.04
2023-05-06T12:45:22.777Z,73.05
2023-05-06T12:47:54.544Z,73.07
2023-05-06T12:50:35.184Z,73.14
2023-05-06T12:53:02.785Z,72.96
2023-05-06T12:55:34.126Z,72.99
2023-05-06T12:58:03.160Z,73.08
2023-05-06T13:00:32.295Z,72.98
2023-05-06T13:03:02.196Z,73.03
2023-05-06T13:05:31.053Z,73.01
2023-05-06T13:07:59.950Z,73.10
2023-05-06T13:10:28.656Z,73.17
2023-05-06T13:12:58.912Z,73.04
2023-05-06T13:15:27.841Z,73.05
2023-05-06T13:18:42.556Z,73.03
2023-05-06T15:28:18.503Z,73.86
2023-05-06T15:30:47.300Z,73.81
2023-05-06T15:33:14.754Z,73.75
2023-05-06T15:35:42.251Z,73.82
2023-05-06T15:38:09.657Z,73.59
2023-05-06T15:40:37.157Z,73.89
2023-05-06T15:43:05.564Z,73.77
2023-05-06T15:45:33.081Z,73.71
2023-05-06T15:48:01.977Z,74.00
2023-05-06T15:50:33.958Z,73.77
2023-05-06T15:53:02.318Z,73.79
2023-05-06T15:55:34.568Z,73.80
2023-05-06T15:58:08.867Z,73.90
2023-05-06T16:00:36.275Z,73.88
2023-05-06T16:03:05.975Z,74.22
2023-05-06T16:05:34.909Z,73.97
2023-05-06T16:08:02.319Z,74.05
2023-05-06T16:10:30.479Z,73.95
2023-05-06T16:12:58.054Z,73.94
2023-05-06T16:15:25.530Z,73.91
2023-05-06T16:17:53.001Z,74.00
2023-05-06T16:20:21.926Z,73.98
2023-05-06T16:22:50.715Z,73.87
2023-05-06T16:25:18.257Z,74.16
2023-05-06T16:27:45.713Z,73.96
2023-05-06T16:30:13.415Z,73.95
2023-05-06T16:32:40.987Z,74.05
2023-05-06T16:35:08.746Z,74.12
2023-05-06T16:37:37.652Z,74.00
2023-05-06T16:40:05.754Z,73.97
2023-05-06T16:42:33.388Z,74.11
2023-05-06T16:45:00.878Z,73.98
2023-05-06T16:47:28.482Z,74.01
2023-05-06T16:49:56.021Z,74.14
2023-05-06T16:52:23.454Z,74.14
2023-05-06T16:54:52.213Z,74.05
2023-05-06T16:57:19.906Z,74.16
2023-05-06T16:59:47.362Z,74.00
2023-05-06T17:02:15.000Z,74.34
2023-05-06T17:04:42.979Z,74.44
2023-05-06T17:07:11.338Z,74.71
2023-05-06T17:09:39.387Z,74.91
2023-05-06T17:12:08.857Z,75.17
2023-05-06T17:14:36.653Z,75.39
2023-05-06T17:17:05.432Z,75.17
2023-05-06T17:19:33.104Z,75.28
2023-05-06T17:22:00.561Z,74.98
2023-05-06T17:24:28.010Z,75.14
2023-05-06T17:26:55.630Z,75.03
2023-05-06T17:29:24.409Z,74.97
2023-05-06T17:31:51.832Z,74.77
2023-05-06T17:34:19.276Z,74.82
2023-05-06T17:36:46.685Z,74.68
2023-05-06T17:39:14.108Z,74.61
2023-05-06T17:41:41.542Z,74.58
2023-05-06T17:44:09.080Z,74.47
2023-05-06T17:46:37.988Z,74.45
2023-05-06T17:49:05.455Z,74.50
2023-05-06T17:51:32.867Z,74.29
2023-05-06T17:54:00.310Z,74.37
2023-05-06T17:56:27.825Z,74.36
2023-05-06T17:58:56.404Z,74.43
2023-05-06T18:01:23.898Z,74.27
2023-05-06T18:03:52.868Z,74.34
2023-05-06T18:06:20.389Z,74.41
2023-05-06T18:08:47.846Z,74.31
2023-05-06T18:11:15.502Z,74.15
2023-05-06T18:13:42.954Z,74.32
2023-05-06T18:16:10.451Z,74.11
2023-05-06T18:18:38.005Z,74.23
2023-05-06T18:21:06.822Z,73.88
2023-05-06T18:23:34.277Z,74.34
2023-05-06T18:26:04.397Z,74.23
2023-05-06T18:28:31.830Z,74.11
2023-05-06T18:30:59.352Z,74.09
2023-05-06T18:33:27.844Z,74.09
2023-05-06T18:35:55.278Z,74.37
2023-05-06T18:38:26.373Z,74.22
2023-05-06T18:40:54.100Z,74.12
2023-05-06T18:43:22.176Z,74.24
2023-05-06T18:45:49.722Z,74.17
2023-05-06T18:48:17.205Z,73.98
2023-05-06T18:50:44.605Z,74.37
2023-05-06T18:53:12.306Z,74.22
2023-05-06T18:55:41.136Z,74.14
2023-05-06T21:52:29.558Z,74.02
2023-05-06T21:55:11.868Z,73.84
2023-05-06T22:12:35.335Z,73.83
